Baldur, Canada
Current Conditions -  °F | °C
As of 8:15 AM on Sunday 23 Nov 2014 (Local Time) from K06D Reporting Station
Overcast Overcast  
Wind Chill: 26°   Ceiling: 1800
Heat Index: 32°   Visibility: 10mi
Dew Point: 32°   Wind: 7mph
Humidity: 100%   Direction: 260°W
Pressure: 29.34"   Gusts: NA
Location:  49.38°N, 99.23°W
Report Text: K06D 231415Z AUTO 26006KT 10SM BKN018 OVC023 00/00 A2934 RMK AO2
Loading
Personal Weather Stations






























Interactive Weather Map New forecast layout! Learn more

10-Day Weather Forecast

Advertisements
Track Severe Weather on mobile